sensor_id;sensor_type;location;lat;lon;timestamp;P1;durP1;ratioP1;P2;durP2;ratioP2
3274;SDS011;1649;53.672;10.064;2022-11-04T00:01:47;12.40;;;5.43;;
3274;SDS011;1649;53.672;10.064;2022-11-04T00:04:13;13.03;;;5.27;;
3274;SDS011;1649;53.672;10.064;2022-11-04T00:06:40;10.03;;;5.03;;
3274;SDS011;1649;53.672;10.064;2022-11-04T00:09:07;11.00;;;5.27;;
3274;SDS011;1649;53.672;10.064;2022-11-04T00:11:35;11.07;;;5.20;;
3274;SDS011;1649;53.672;10.064;2022-11-04T00:14:19;15.00;;;5.27;;
3274;SDS011;1649;53.672;10.064;2022-11-04T00:16:45;11.60;;;4.93;;
3274;SDS011;1649;53.672;10.064;2022-11-04T00:19:30;9.27;;;5.00;;
3274;SDS011;1649;53.672;10.064;2022-11-04T00:22:14;14.23;;;5.70;;
3274;SDS011;1649;53.672;10.064;2022-11-04T00:24:58;10.03;;;5.37;;
3274;SDS011;1649;53.672;10.064;2022-11-04T00:27:24;11.17;;;5.20;;
3274;SDS011;1649;53.672;10.064;2022-11-04T00:30:08;11.77;;;6.10;;
3274;SDS011;1649;53.672;10.064;2022-11-04T00:32:35;13.93;;;5.67;;
3274;SDS011;1649;53.672;10.064;2022-11-04T00:35:19;10.70;;;5.60;;
3274;SDS011;1649;53.672;10.064;2022-11-04T00:37:45;9.20;;;5.30;;
3274;SDS011;1649;53.672;10.064;2022-11-04T00:40:12;13.83;;;5.73;;
3274;SDS011;1649;53.672;10.064;2022-11-04T00:42:40;12.60;;;6.17;;
3274;SDS011;1649;53.672;10.064;2022-11-04T00:45:08;12.40;;;6.43;;
3274;SDS011;1649;53.672;10.064;2022-11-04T00:47:34;12.77;;;7.00;;
3274;SDS011;1649;53.672;10.064;2022-11-04T00:49:59;12.33;;;6.20;;
3274;SDS011;1649;53.672;10.064;2022-11-04T00:52:25;12.53;;;6.00;;
3274;SDS011;1649;53.672;10.064;2022-11-04T00:54:50;12.07;;;5.40;;
3274;SDS011;1649;53.672;10.064;2022-11-04T00:57:16;12.23;;;6.00;;
3274;SDS011;1649;53.672;10.064;2022-11-04T00:59:41;11.90;;;5.77;;
3274;SDS011;1649;53.672;10.064;2022-11-04T01:02:07;13.67;;;6.30;;
3274;SDS011;1649;53.672;10.064;2022-11-04T01:04:33;13.63;;;5.90;;
3274;SDS011;1649;53.672;10.064;2022-11-04T01:06:59;10.87;;;6.13;;
3274;SDS011;1649;53.672;10.064;2022-11-04T01:09:25;15.57;;;6.40;;
3274;SDS011;1649;53.672;10.064;2022-11-04T01:11:51;14.20;;;5.90;;
3274;SDS011;1649;53.672;10.064;2022-11-04T01:14:16;16.07;;;6.67;;
3274;SDS011;1649;53.672;10.064;2022-11-04T01:16:42;12.40;;;5.90;;
3274;SDS011;1649;53.672;10.064;2022-11-04T01:19:08;10.40;;;6.10;;
3274;SDS011;1649;53.672;10.064;2022-11-04T01:21:34;10.70;;;6.50;;
3274;SDS011;1649;53.672;10.064;2022-11-04T01:24:00;13.03;;;5.73;;
3274;SDS011;1649;53.672;10.064;2022-11-04T01:26:26;11.50;;;5.63;;
3274;SDS011;1649;53.672;10.064;2022-11-04T01:28:52;13.00;;;5.90;;
3274;SDS011;1649;53.672;10.064;2022-11-04T01:31:26;14.43;;;5.90;;
3274;SDS011;1649;53.672;10.064;2022-11-04T01:33:54;11.07;;;5.87;;
3274;SDS011;1649;53.672;10.064;2022-11-04T01:36:20;14.70;;;6.10;;
3274;SDS011;1649;53.672;10.064;2022-11-04T01:38:46;12.57;;;6.70;;
3274;SDS011;1649;53.672;10.064;2022-11-04T01:41:19;11.23;;;5.77;;
3274;SDS011;1649;53.672;10.064;2022-11-04T01:43:53;11.97;;;5.97;;
3274;SDS011;1649;53.672;10.064;2022-11-04T01:46:30;13.13;;;5.70;;
3274;SDS011;1649;53.672;10.064;2022-11-04T01:49:10;13.67;;;6.00;;
3274;SDS011;1649;53.672;10.064;2022-11-04T01:51:47;11.40;;;6.00;;
3274;SDS011;1649;53.672;10.064;2022-11-04T01:54:15;11.00;;;6.07;;
3274;SDS011;1649;53.672;10.064;2022-11-04T01:56:42;13.03;;;6.10;;
3274;SDS011;1649;53.672;10.064;2022-11-04T01:59:10;11.40;;;5.83;;
3274;SDS011;1649;53.672;10.064;2022-11-04T02:01:43;11.17;;;5.50;;
3274;SDS011;1649;53.672;10.064;2022-11-04T02:04:08;9.20;;;5.90;;
3274;SDS011;1649;53.672;10.064;2022-11-04T02:06:51;10.30;;;6.23;;
3274;SDS011;1649;53.672;10.064;2022-11-04T02:09:19;12.23;;;6.60;;
3274;SDS011;1649;53.672;10.064;2022-11-04T02:11:46;12.27;;;6.20;;
3274;SDS011;1649;53.672;10.064;2022-11-04T02:14:30;12.20;;;6.13;;
3274;SDS011;1649;53.672;10.064;2022-11-04T02:17:00;14.57;;;6.43;;
3274;SDS011;1649;53.672;10.064;2022-11-04T02:25:03;13.10;;;6.60;;
3274;SDS011;1649;53.672;10.064;2022-11-04T02:30:14;11.77;;;6.43;;
3274;SDS011;1649;53.672;10.064;2022-11-04T02:35:22;13.57;;;7.10;;
3274;SDS011;1649;53.672;10.064;2022-11-04T02:37:57;11.03;;;6.67;;
3274;SDS011;1649;53.672;10.064;2022-11-04T02:40:39;14.07;;;6.27;;
3274;SDS011;1649;53.672;10.064;2022-11-04T02:46:04;12.10;;;6.47;;
3274;SDS011;1649;53.672;10.064;2022-11-04T02:48:43;12.60;;;6.10;;
3274;SDS011;1649;53.672;10.064;2022-11-04T02:51:13;13.40;;;6.87;;
3274;SDS011;1649;53.672;10.064;2022-11-04T02:53:50;14.13;;;7.13;;
3274;SDS011;1649;53.672;10.064;2022-11-04T02:56:43;13.37;;;6.67;;
3274;SDS011;1649;53.672;10.064;2022-11-04T02:59:19;15.57;;;7.30;;
3274;SDS011;1649;53.672;10.064;2022-11-04T03:01:52;13.90;;;7.13;;
3274;SDS011;1649;53.672;10.064;2022-11-04T03:04:21;12.87;;;6.23;;
3274;SDS011;1649;53.672;10.064;2022-11-04T03:06:52;14.80;;;7.03;;
3274;SDS011;1649;53.672;10.064;2022-11-04T03:09:19;13.00;;;7.40;;
3274;SDS011;1649;53.672;10.064;2022-11-04T03:11:48;12.33;;;7.20;;
3274;SDS011;1649;53.672;10.064;2022-11-04T03:14:18;12.70;;;7.40;;
3274;SDS011;1649;53.672;10.064;2022-11-04T03:16:49;17.90;;;8.03;;
3274;SDS011;1649;53.672;10.064;2022-11-04T03:22:07;16.20;;;8.53;;
3274;SDS011;1649;53.672;10.064;2022-11-04T03:24:36;16.07;;;8.30;;
3274;SDS011;1649;53.672;10.064;2022-11-04T03:29:32;17.07;;;8.60;;
3274;SDS011;1649;53.672;10.064;2022-11-04T03:32:12;14.60;;;8.10;;
3274;SDS011;1649;53.672;10.064;2022-11-04T03:34:53;14.33;;;8.57;;
3274;SDS011;1649;53.672;10.064;2022-11-04T03:37:19;15.97;;;8.20;;
3274;SDS011;1649;53.672;10.064;2022-11-04T03:39:44;21.63;;;8.50;;
3274;SDS011;1649;53.672;10.064;2022-11-04T03:42:10;14.10;;;8.10;;
3274;SDS011;1649;53.672;10.064;2022-11-04T03:44:56;15.13;;;7.53;;
3274;SDS011;1649;53.672;10.064;2022-11-04T03:47:24;16.87;;;9.47;;
3274;SDS011;1649;53.672;10.064;2022-11-04T03:49:54;21.83;;;9.60;;
3274;SDS011;1649;53.672;10.064;2022-11-04T03:52:26;15.77;;;9.10;;
3274;SDS011;1649;53.672;10.064;2022-11-04T03:54:51;17.90;;;8.50;;
3274;SDS011;1649;53.672;10.064;2022-11-04T03:57:21;15.97;;;7.93;;
3274;SDS011;1649;53.672;10.064;2022-11-04T04:00:08;16.70;;;8.80;;
3274;SDS011;1649;53.672;10.064;2022-11-04T04:05:20;20.10;;;9.67;;
3274;SDS011;1649;53.672;10.064;2022-11-04T04:07:48;16.30;;;8.90;;
3274;SDS011;1649;53.672;10.064;2022-11-04T04:10:41;18.03;;;9.17;;
3274;SDS011;1649;53.672;10.064;2022-11-04T04:13:22;17.10;;;9.30;;
3274;SDS011;1649;53.672;10.064;2022-11-04T04:18:40;17.47;;;8.77;;
3274;SDS011;1649;53.672;10.064;2022-11-04T04:21:13;20.30;;;9.20;;
3274;SDS011;1649;53.672;10.064;2022-11-04T04:23:42;15.40;;;8.00;;
3274;SDS011;1649;53.672;10.064;2022-11-04T04:26:28;16.67;;;9.37;;
3274;SDS011;1649;53.672;10.064;2022-11-04T04:29:15;17.17;;;8.10;;
3274;SDS011;1649;53.672;10.064;2022-11-04T04:31:42;19.10;;;10.03;;
3274;SDS011;1649;53.672;10.064;2022-11-04T04:34:14;16.30;;;9.57;;
3274;SDS011;1649;53.672;10.064;2022-11-04T04:39:22;19.00;;;9.50;;
3274;SDS011;1649;53.672;10.064;2022-11-04T04:42:09;18.40;;;9.73;;
3274;SDS011;1649;53.672;10.064;2022-11-04T04:44:54;13.13;;;8.00;;
3274;SDS011;1649;53.672;10.064;2022-11-04T04:47:31;16.53;;;8.90;;
3274;SDS011;1649;53.672;10.064;2022-11-04T04:50:03;12.33;;;7.37;;
3274;SDS011;1649;53.672;10.064;2022-11-04T04:52:30;14.23;;;9.60;;
3274;SDS011;1649;53.672;10.064;2022-11-04T04:54:58;15.40;;;8.47;;
3274;SDS011;1649;53.672;10.064;2022-11-04T04:57:23;13.37;;;7.53;;
3274;SDS011;1649;53.672;10.064;2022-11-04T04:59:49;13.07;;;8.10;;
3274;SDS011;1649;53.672;10.064;2022-11-04T05:02:14;11.20;;;7.20;;
3274;SDS011;1649;53.672;10.064;2022-11-04T05:04:40;11.93;;;6.47;;
3274;SDS011;1649;53.672;10.064;2022-11-04T05:07:05;13.60;;;6.53;;
3274;SDS011;1649;53.672;10.064;2022-11-04T05:09:32;10.60;;;5.50;;
3274;SDS011;1649;53.672;10.064;2022-11-04T05:11:57;9.70;;;4.70;;
3274;SDS011;1649;53.672;10.064;2022-11-04T05:14:23;8.93;;;4.40;;
3274;SDS011;1649;53.672;10.064;2022-11-04T05:16:48;8.27;;;4.00;;
3274;SDS011;1649;53.672;10.064;2022-11-04T05:19:14;7.93;;;3.50;;
3274;SDS011;1649;53.672;10.064;2022-11-04T05:21:39;9.80;;;4.03;;
3274;SDS011;1649;53.672;10.064;2022-11-04T05:24:05;8.50;;;3.93;;
3274;SDS011;1649;53.672;10.064;2022-11-04T05:26:31;7.87;;;3.17;;
3274;SDS011;1649;53.672;10.064;2022-11-04T05:28:56;5.80;;;3.07;;
3274;SDS011;1649;53.672;10.064;2022-11-04T05:31:22;6.73;;;3.37;;
3274;SDS011;1649;53.672;10.064;2022-11-04T05:33:47;7.10;;;3.47;;
3274;SDS011;1649;53.672;10.064;2022-11-04T05:36:14;6.27;;;3.30;;
3274;SDS011;1649;53.672;10.064;2022-11-04T05:38:41;6.20;;;2.90;;
3274;SDS011;1649;53.672;10.064;2022-11-04T05:41:07;7.53;;;3.47;;
3274;SDS011;1649;53.672;10.064;2022-11-04T05:43:34;5.70;;;2.70;;
3274;SDS011;1649;53.672;10.064;2022-11-04T05:46:00;8.23;;;3.43;;
3274;SDS011;1649;53.672;10.064;2022-11-04T05:48:26;7.20;;;2.97;;
3274;SDS011;1649;53.672;10.064;2022-11-04T05:50:52;5.50;;;2.63;;
3274;SDS011;1649;53.672;10.064;2022-11-04T05:53:18;8.93;;;3.43;;
3274;SDS011;1649;53.672;10.064;2022-11-04T05:55:44;6.80;;;3.07;;
3274;SDS011;1649;53.672;10.064;2022-11-04T05:58:09;6.37;;;3.40;;
3274;SDS011;1649;53.672;10.064;2022-11-04T06:00:35;6.30;;;3.13;;
3274;SDS011;1649;53.672;10.064;2022-11-04T06:03:00;7.40;;;3.60;;
3274;SDS011;1649;53.672;10.064;2022-11-04T06:05:26;7.00;;;3.97;;
3274;SDS011;1649;53.672;10.064;2022-11-04T06:07:52;6.47;;;3.60;;
3274;SDS011;1649;53.672;10.064;2022-11-04T06:10:18;7.80;;;4.17;;
3274;SDS011;1649;53.672;10.064;2022-11-04T06:12:44;7.30;;;3.60;;
3274;SDS011;1649;53.672;10.064;2022-11-04T06:15:09;6.83;;;3.90;;
3274;SDS011;1649;53.672;10.064;2022-11-04T06:17:36;7.33;;;4.00;;
3274;SDS011;1649;53.672;10.064;2022-11-04T06:20:02;7.10;;;3.97;;
3274;SDS011;1649;53.672;10.064;2022-11-04T06:22:28;6.57;;;3.70;;
3274;SDS011;1649;53.672;10.064;2022-11-04T06:24:54;8.13;;;3.77;;
3274;SDS011;1649;53.672;10.064;2022-11-04T06:27:19;7.90;;;3.90;;
3274;SDS011;1649;53.672;10.064;2022-11-04T06:29:45;8.10;;;4.33;;
3274;SDS011;1649;53.672;10.064;2022-11-04T06:32:12;7.40;;;3.83;;
3274;SDS011;1649;53.672;10.064;2022-11-04T06:34:39;10.40;;;3.90;;
3274;SDS011;1649;53.672;10.064;2022-11-04T06:37:05;8.17;;;4.77;;
3274;SDS011;1649;53.672;10.064;2022-11-04T06:39:31;8.80;;;5.07;;
3274;SDS011;1649;53.672;10.064;2022-11-04T06:41:56;9.30;;;4.93;;
3274;SDS011;1649;53.672;10.064;2022-11-04T06:44:22;8.47;;;4.63;;
3274;SDS011;1649;53.672;10.064;2022-11-04T06:46:48;8.40;;;4.73;;
3274;SDS011;1649;53.672;10.064;2022-11-04T06:49:17;9.27;;;4.90;;
3274;SDS011;1649;53.672;10.064;2022-11-04T06:51:45;8.97;;;5.30;;
3274;SDS011;1649;53.672;10.064;2022-11-04T06:54:11;8.30;;;5.07;;
3274;SDS011;1649;53.672;10.064;2022-11-04T06:56:37;10.33;;;5.50;;
3274;SDS011;1649;53.672;10.064;2022-11-04T06:59:03;11.43;;;5.00;;
3274;SDS011;1649;53.672;10.064;2022-11-04T07:01:29;11.10;;;5.07;;
3274;SDS011;1649;53.672;10.064;2022-11-04T07:03:58;9.37;;;5.43;;
3274;SDS011;1649;53.672;10.064;2022-11-04T07:06:24;11.27;;;5.33;;
3274;SDS011;1649;53.672;10.064;2022-11-04T07:08:51;8.27;;;4.90;;
3274;SDS011;1649;53.672;10.064;2022-11-04T07:11:19;9.70;;;5.77;;
3274;SDS011;1649;53.672;10.064;2022-11-04T07:13:46;10.10;;;5.50;;
3274;SDS011;1649;53.672;10.064;2022-11-04T07:16:13;9.17;;;5.30;;
3274;SDS011;1649;53.672;10.064;2022-11-04T07:18:39;9.80;;;5.60;;
3274;SDS011;1649;53.672;10.064;2022-11-04T07:21:05;9.00;;;4.77;;
3274;SDS011;1649;53.672;10.064;2022-11-04T07:23:31;9.10;;;5.30;;
3274;SDS011;1649;53.672;10.064;2022-11-04T07:26:03;10.07;;;5.60;;
3274;SDS011;1649;53.672;10.064;2022-11-04T07:28:31;9.80;;;5.67;;
3274;SDS011;1649;53.672;10.064;2022-11-04T07:30:57;9.50;;;5.37;;
3274;SDS011;1649;53.672;10.064;2022-11-04T07:33:24;11.60;;;6.37;;
3274;SDS011;1649;53.672;10.064;2022-11-04T07:35:50;11.03;;;5.70;;
3274;SDS011;1649;53.672;10.064;2022-11-04T07:38:17;10.80;;;5.70;;
3274;SDS011;1649;53.672;10.064;2022-11-04T07:40:43;10.23;;;6.00;;
3274;SDS011;1649;53.672;10.064;2022-11-04T07:43:08;9.57;;;6.50;;
3274;SDS011;1649;53.672;10.064;2022-11-04T07:45:33;10.03;;;6.23;;
3274;SDS011;1649;53.672;10.064;2022-11-04T07:47:59;11.50;;;6.60;;
3274;SDS011;1649;53.672;10.064;2022-11-04T07:50:24;10.97;;;5.80;;
3274;SDS011;1649;53.672;10.064;2022-11-04T07:52:50;11.43;;;6.40;;
3274;SDS011;1649;53.672;10.064;2022-11-04T07:55:18;10.83;;;6.70;;
3274;SDS011;1649;53.672;10.064;2022-11-04T07:57:45;11.17;;;6.67;;
3274;SDS011;1649;53.672;10.064;2022-11-04T08:00:11;10.67;;;6.23;;
3274;SDS011;1649;53.672;10.064;2022-11-04T08:02:39;10.80;;;6.17;;
3274;SDS011;1649;53.672;10.064;2022-11-04T08:05:06;11.20;;;6.43;;
3274;SDS011;1649;53.672;10.064;2022-11-04T08:07:32;10.23;;;6.60;;
3274;SDS011;1649;53.672;10.064;2022-11-04T08:09:57;10.77;;;6.80;;
3274;SDS011;1649;53.672;10.064;2022-11-04T08:12:23;12.43;;;6.80;;
3274;SDS011;1649;53.672;10.064;2022-11-04T08:14:49;10.27;;;6.70;;
3274;SDS011;1649;53.672;10.064;2022-11-04T08:17:15;11.77;;;7.47;;
3274;SDS011;1649;53.672;10.064;2022-11-04T08:19:41;9.87;;;5.90;;
3274;SDS011;1649;53.672;10.064;2022-11-04T08:22:06;10.00;;;6.30;;
3274;SDS011;1649;53.672;10.064;2022-11-04T08:24:32;11.60;;;6.90;;
3274;SDS011;1649;53.672;10.064;2022-11-04T08:26:58;11.60;;;7.40;;
3274;SDS011;1649;53.672;10.064;2022-11-04T08:29:23;11.07;;;6.53;;
3274;SDS011;1649;53.672;10.064;2022-11-04T08:31:49;11.03;;;7.40;;
3274;SDS011;1649;53.672;10.064;2022-11-04T08:34:14;11.20;;;6.50;;
3274;SDS011;1649;53.672;10.064;2022-11-04T08:36:42;12.70;;;8.13;;
3274;SDS011;1649;53.672;10.064;2022-11-04T08:39:09;12.47;;;7.20;;
3274;SDS011;1649;53.672;10.064;2022-11-04T08:41:35;12.87;;;7.57;;
3274;SDS011;1649;53.672;10.064;2022-11-04T08:44:03;10.30;;;6.20;;
3274;SDS011;1649;53.672;10.064;2022-11-04T08:46:31;11.47;;;6.37;;
3274;SDS011;1649;53.672;10.064;2022-11-04T08:49:02;10.63;;;6.77;;
3274;SDS011;1649;53.672;10.064;2022-11-04T08:51:28;10.10;;;6.20;;
3274;SDS011;1649;53.672;10.064;2022-11-04T08:53:55;10.30;;;6.97;;
3274;SDS011;1649;53.672;10.064;2022-11-04T08:56:28;12.13;;;6.60;;
3274;SDS011;1649;53.672;10.064;2022-11-04T08:58:55;10.57;;;6.80;;
3274;SDS011;1649;53.672;10.064;2022-11-04T09:01:22;12.40;;;6.20;;
3274;SDS011;1649;53.672;10.064;2022-11-04T09:03:48;11.30;;;7.13;;
3274;SDS011;1649;53.672;10.064;2022-11-04T09:06:17;11.67;;;6.83;;
3274;SDS011;1649;53.672;10.064;2022-11-04T09:08:45;10.60;;;6.43;;
3274;SDS011;1649;53.672;10.064;2022-11-04T09:11:12;11.40;;;7.00;;
3274;SDS011;1649;53.672;10.064;2022-11-04T09:13:39;10.40;;;6.60;;
3274;SDS011;1649;53.672;10.064;2022-11-04T09:16:05;10.80;;;7.13;;
3274;SDS011;1649;53.672;10.064;2022-11-04T09:18:31;10.10;;;7.00;;
3274;SDS011;1649;53.672;10.064;2022-11-04T09:21:00;9.63;;;6.17;;
3274;SDS011;1649;53.672;10.064;2022-11-04T09:23:26;10.83;;;6.23;;
3274;SDS011;1649;53.672;10.064;2022-11-04T09:25:52;10.23;;;6.00;;
3274;SDS011;1649;53.672;10.064;2022-11-04T09:28:21;9.60;;;5.53;;
3274;SDS011;1649;53.672;10.064;2022-11-04T09:30:46;9.30;;;6.50;;
3274;SDS011;1649;53.672;10.064;2022-11-04T09:33:12;10.30;;;6.40;;
3274;SDS011;1649;53.672;10.064;2022-11-04T09:35:37;9.30;;;6.00;;
3274;SDS011;1649;53.672;10.064;2022-11-04T09:38:03;9.17;;;5.70;;
3274;SDS011;1649;53.672;10.064;2022-11-04T09:40:28;8.00;;;5.40;;
3274;SDS011;1649;53.672;10.064;2022-11-04T09:43:04;10.80;;;6.43;;
3274;SDS011;1649;53.672;10.064;2022-11-04T09:45:51;12.53;;;5.67;;
3274;SDS011;1649;53.672;10.064;2022-11-04T09:48:23;11.73;;;6.10;;
3274;SDS011;1649;53.672;10.064;2022-11-04T09:50:58;11.20;;;5.80;;
3274;SDS011;1649;53.672;10.064;2022-11-04T09:53:35;8.73;;;4.83;;
3274;SDS011;1649;53.672;10.064;2022-11-04T09:56:22;7.83;;;5.03;;
3274;SDS011;1649;53.672;10.064;2022-11-04T09:58:48;7.07;;;4.50;;
3274;SDS011;1649;53.672;10.064;2022-11-04T10:09:38;7.70;;;4.40;;
3274;SDS011;1649;53.672;10.064;2022-11-04T10:12:14;6.57;;;3.77;;
3274;SDS011;1649;53.672;10.064;2022-11-04T10:17:28;7.70;;;3.20;;
3274;SDS011;1649;53.672;10.064;2022-11-04T10:22:55;6.77;;;2.73;;
3274;SDS011;1649;53.672;10.064;2022-11-04T10:25:52;5.10;;;2.90;;
3274;SDS011;1649;53.672;10.064;2022-11-04T10:28:29;5.80;;;2.83;;
3274;SDS011;1649;53.672;10.064;2022-11-04T10:31:02;4.70;;;2.50;;
3274;SDS011;1649;53.672;10.064;2022-11-04T10:33:33;5.63;;;2.97;;
3274;SDS011;1649;53.672;10.064;2022-11-04T10:36:06;5.20;;;2.70;;
3274;SDS011;1649;53.672;10.064;2022-11-04T10:38:38;6.33;;;2.90;;
3274;SDS011;1649;53.672;10.064;2022-11-04T10:41:32;5.47;;;3.07;;
3274;SDS011;1649;53.672;10.064;2022-11-04T10:44:02;6.00;;;2.70;;
3274;SDS011;1649;53.672;10.064;2022-11-04T10:46:32;5.70;;;2.70;;
3274;SDS011;1649;53.672;10.064;2022-11-04T10:52:06;5.37;;;2.60;;
3274;SDS011;1649;53.672;10.064;2022-11-04T10:54:41;5.17;;;2.80;;
3274;SDS011;1649;53.672;10.064;2022-11-04T10:57:12;5.43;;;2.53;;
3274;SDS011;1649;53.672;10.064;2022-11-04T10:59:57;6.30;;;2.30;;
3274;SDS011;1649;53.672;10.064;2022-11-04T11:05:11;5.80;;;2.47;;
3274;SDS011;1649;53.672;10.064;2022-11-04T11:07:50;5.80;;;1.80;;
3274;SDS011;1649;53.672;10.064;2022-11-04T11:10:22;4.73;;;1.70;;
3274;SDS011;1649;53.672;10.064;2022-11-04T11:12:56;4.97;;;1.90;;
3274;SDS011;1649;53.672;10.064;2022-11-04T11:15:34;5.23;;;1.73;;
3274;SDS011;1649;53.672;10.064;2022-11-04T11:20:30;5.73;;;2.07;;
3274;SDS011;1649;53.672;10.064;2022-11-04T11:22:57;5.77;;;1.77;;
3274;SDS011;1649;53.672;10.064;2022-11-04T11:30:26;5.60;;;1.97;;
3274;SDS011;1649;53.672;10.064;2022-11-04T11:33:27;6.47;;;1.73;;
3274;SDS011;1649;53.672;10.064;2022-11-04T11:35:54;4.50;;;1.53;;
3274;SDS011;1649;53.672;10.064;2022-11-04T11:38:30;4.93;;;1.40;;
3274;SDS011;1649;53.672;10.064;2022-11-04T11:41:11;4.87;;;1.63;;
3274;SDS011;1649;53.672;10.064;2022-11-04T11:43:43;6.13;;;1.70;;
3274;SDS011;1649;53.672;10.064;2022-11-04T11:46:19;4.10;;;1.40;;
3274;SDS011;1649;53.672;10.064;2022-11-04T11:48:54;3.90;;;1.03;;
3274;SDS011;1649;53.672;10.064;2022-11-04T11:51:26;5.57;;;1.50;;
3274;SDS011;1649;53.672;10.064;2022-11-04T11:54:01;4.20;;;1.10;;
3274;SDS011;1649;53.672;10.064;2022-11-04T11:56:50;7.40;;;1.37;;
3274;SDS011;1649;53.672;10.064;2022-11-04T12:01:50;3.67;;;1.03;;
3274;SDS011;1649;53.672;10.064;2022-11-04T12:04:40;6.03;;;1.20;;
3274;SDS011;1649;53.672;10.064;2022-11-04T12:07:19;5.33;;;1.40;;
3274;SDS011;1649;53.672;10.064;2022-11-04T12:13:21;4.73;;;1.10;;
3274;SDS011;1649;53.672;10.064;2022-11-04T12:21:26;6.23;;;1.10;;
3274;SDS011;1649;53.672;10.064;2022-11-04T12:27:01;5.53;;;1.50;;
3274;SDS011;1649;53.672;10.064;2022-11-04T12:29:57;3.53;;;1.00;;
3274;SDS011;1649;53.672;10.064;2022-11-04T12:32:34;6.97;;;1.60;;
3274;SDS011;1649;53.672;10.064;2022-11-04T12:38:19;3.63;;;1.10;;
3274;SDS011;1649;53.672;10.064;2022-11-04T12:46:26;5.47;;;1.20;;
3274;SDS011;1649;53.672;10.064;2022-11-04T12:51:53;4.50;;;1.40;;
3274;SDS011;1649;53.672;10.064;2022-11-04T12:57:27;4.47;;;1.17;;
3274;SDS011;1649;53.672;10.064;2022-11-04T13:08:20;3.97;;;1.13;;
3274;SDS011;1649;53.672;10.064;2022-11-04T13:10:52;3.50;;;1.10;;
3274;SDS011;1649;53.672;10.064;2022-11-04T13:13:20;4.67;;;1.10;;
3274;SDS011;1649;53.672;10.064;2022-11-04T13:15:53;4.97;;;1.40;;
3274;SDS011;1649;53.672;10.064;2022-11-04T13:18:22;4.83;;;1.30;;
3274;SDS011;1649;53.672;10.064;2022-11-04T13:20:55;5.17;;;1.23;;
3274;SDS011;1649;53.672;10.064;2022-11-04T13:26:16;6.23;;;1.40;;
3274;SDS011;1649;53.672;10.064;2022-11-04T13:28:43;4.53;;;1.20;;
3274;SDS011;1649;53.672;10.064;2022-11-04T13:34:05;4.33;;;1.20;;
3274;SDS011;1649;53.672;10.064;2022-11-04T13:36:46;4.20;;;1.33;;
3274;SDS011;1649;53.672;10.064;2022-11-04T13:39:22;5.83;;;1.30;;
3274;SDS011;1649;53.672;10.064;2022-11-04T13:42:03;4.90;;;1.40;;
3274;SDS011;1649;53.672;10.064;2022-11-04T13:44:51;6.37;;;1.23;;
3274;SDS011;1649;53.672;10.064;2022-11-04T13:47:24;4.93;;;1.33;;
3274;SDS011;1649;53.672;10.064;2022-11-04T13:49:57;4.67;;;1.40;;
3274;SDS011;1649;53.672;10.064;2022-11-04T13:52:24;4.13;;;1.23;;
3274;SDS011;1649;53.672;10.064;2022-11-04T13:57:23;4.00;;;1.27;;
3274;SDS011;1649;53.672;10.064;2022-11-04T14:00:16;5.00;;;1.60;;
3274;SDS011;1649;53.672;10.064;2022-11-04T14:02:44;5.40;;;1.40;;
3274;SDS011;1649;53.672;10.064;2022-11-04T14:18:48;7.40;;;1.90;;
3274;SDS011;1649;53.672;10.064;2022-11-04T14:21:16;4.93;;;1.20;;
3274;SDS011;1649;53.672;10.064;2022-11-04T14:23:48;6.20;;;1.40;;
3274;SDS011;1649;53.672;10.064;2022-11-04T14:26:19;7.00;;;1.20;;
3274;SDS011;1649;53.672;10.064;2022-11-04T14:28:49;11.90;;;2.03;;
3274;SDS011;1649;53.672;10.064;2022-11-04T14:31:36;5.67;;;1.43;;
3274;SDS011;1649;53.672;10.064;2022-11-04T14:34:03;7.63;;;1.67;;
3274;SDS011;1649;53.672;10.064;2022-11-04T14:36:33;4.83;;;1.30;;
3274;SDS011;1649;53.672;10.064;2022-11-04T14:46:39;5.53;;;1.27;;
3274;SDS011;1649;53.672;10.064;2022-11-04T14:49:12;5.10;;;1.23;;
3274;SDS011;1649;53.672;10.064;2022-11-04T14:51:56;12.37;;;2.00;;
3274;SDS011;1649;53.672;10.064;2022-11-04T14:54:23;5.93;;;1.47;;
3274;SDS011;1649;53.672;10.064;2022-11-04T14:56:51;4.33;;;1.70;;
3274;SDS011;1649;53.672;10.064;2022-11-04T14:59:21;5.40;;;1.37;;
3274;SDS011;1649;53.672;10.064;2022-11-04T15:01:53;4.77;;;1.20;;
3274;SDS011;1649;53.672;10.064;2022-11-04T15:06:53;11.10;;;1.60;;
3274;SDS011;1649;53.672;10.064;2022-11-04T15:09:27;4.93;;;1.10;;
3274;SDS011;1649;53.672;10.064;2022-11-04T15:11:57;5.73;;;1.70;;
3274;SDS011;1649;53.672;10.064;2022-11-04T15:14:42;6.53;;;1.47;;
3274;SDS011;1649;53.672;10.064;2022-11-04T15:17:09;4.87;;;1.20;;
3274;SDS011;1649;53.672;10.064;2022-11-04T15:19:42;7.27;;;1.20;;
3274;SDS011;1649;53.672;10.064;2022-11-04T15:22:14;3.87;;;1.57;;
3274;SDS011;1649;53.672;10.064;2022-11-04T15:24:40;5.07;;;1.50;;
3274;SDS011;1649;53.672;10.064;2022-11-04T15:27:11;3.60;;;1.30;;
3274;SDS011;1649;53.672;10.064;2022-11-04T15:29:39;6.13;;;1.43;;
3274;SDS011;1649;53.672;10.064;2022-11-04T15:32:16;4.33;;;1.50;;
3274;SDS011;1649;53.672;10.064;2022-11-04T15:34:42;6.30;;;1.67;;
3274;SDS011;1649;53.672;10.064;2022-11-04T15:37:09;5.67;;;1.40;;
3274;SDS011;1649;53.672;10.064;2022-11-04T15:39:43;6.20;;;1.70;;
3274;SDS011;1649;53.672;10.064;2022-11-04T15:42:19;4.70;;;1.20;;
3274;SDS011;1649;53.672;10.064;2022-11-04T15:53:47;5.23;;;1.43;;
3274;SDS011;1649;53.672;10.064;2022-11-04T15:56:25;5.90;;;2.03;;
3274;SDS011;1649;53.672;10.064;2022-11-04T15:59:06;5.07;;;1.87;;
3274;SDS011;1649;53.672;10.064;2022-11-04T16:01:44;11.93;;;3.07;;
3274;SDS011;1649;53.672;10.064;2022-11-04T16:04:12;10.63;;;3.23;;
3274;SDS011;1649;53.672;10.064;2022-11-04T16:06:40;6.10;;;2.70;;
3274;SDS011;1649;53.672;10.064;2022-11-04T16:11:34;7.07;;;3.80;;
3274;SDS011;1649;53.672;10.064;2022-11-04T16:16:47;8.90;;;4.13;;
3274;SDS011;1649;53.672;10.064;2022-11-04T16:19:19;11.70;;;4.07;;
3274;SDS011;1649;53.672;10.064;2022-11-04T16:21:57;8.50;;;3.50;;
3274;SDS011;1649;53.672;10.064;2022-11-04T16:24:30;8.60;;;2.93;;
3274;SDS011;1649;53.672;10.064;2022-11-04T16:26:57;6.50;;;3.13;;
3274;SDS011;1649;53.672;10.064;2022-11-04T16:29:24;8.90;;;3.43;;
3274;SDS011;1649;53.672;10.064;2022-11-04T16:34:48;7.73;;;3.43;;
3274;SDS011;1649;53.672;10.064;2022-11-04T16:37:16;7.93;;;3.40;;
3274;SDS011;1649;53.672;10.064;2022-11-04T16:39:42;11.97;;;3.40;;
3274;SDS011;1649;53.672;10.064;2022-11-04T16:42:09;10.03;;;4.07;;
3274;SDS011;1649;53.672;10.064;2022-11-04T16:44:36;7.10;;;3.00;;
3274;SDS011;1649;53.672;10.064;2022-11-04T16:47:02;7.37;;;3.43;;
3274;SDS011;1649;53.672;10.064;2022-11-04T16:49:28;9.43;;;3.03;;
3274;SDS011;1649;53.672;10.064;2022-11-04T16:51:54;12.70;;;3.23;;
3274;SDS011;1649;53.672;10.064;2022-11-04T16:54:24;9.10;;;3.20;;
3274;SDS011;1649;53.672;10.064;2022-11-04T16:56:51;8.27;;;3.20;;
3274;SDS011;1649;53.672;10.064;2022-11-04T16:59:18;8.63;;;3.50;;
3274;SDS011;1649;53.672;10.064;2022-11-04T17:01:44;6.17;;;3.17;;
3274;SDS011;1649;53.672;10.064;2022-11-04T17:04:09;9.90;;;3.53;;
3274;SDS011;1649;53.672;10.064;2022-11-04T17:06:35;8.27;;;3.20;;
3274;SDS011;1649;53.672;10.064;2022-11-04T17:09:00;6.17;;;3.23;;
3274;SDS011;1649;53.672;10.064;2022-11-04T17:11:26;9.23;;;3.87;;
3274;SDS011;1649;53.672;10.064;2022-11-04T17:13:54;10.10;;;3.73;;
3274;SDS011;1649;53.672;10.064;2022-11-04T17:16:19;11.30;;;3.27;;
3274;SDS011;1649;53.672;10.064;2022-11-04T17:18:45;8.63;;;4.07;;
3274;SDS011;1649;53.672;10.064;2022-11-04T17:21:12;8.70;;;4.23;;
3274;SDS011;1649;53.672;10.064;2022-11-04T17:23:40;10.50;;;4.77;;
3274;SDS011;1649;53.672;10.064;2022-11-04T17:26:06;8.20;;;3.73;;
3274;SDS011;1649;53.672;10.064;2022-11-04T17:28:33;10.30;;;3.73;;
3274;SDS011;1649;53.672;10.064;2022-11-04T17:31:00;9.10;;;4.70;;
3274;SDS011;1649;53.672;10.064;2022-11-04T17:33:26;9.53;;;5.67;;
3274;SDS011;1649;53.672;10.064;2022-11-04T17:35:51;11.00;;;5.57;;